sensor_id;sensor_type;location;lat;lon;timestamp;P1;durP1;ratioP1;P2;durP2;ratioP2
15504;SDS011;7854;52.184;5.942;2023-05-07T00:03:17;19;;;17;;
15504;SDS011;7854;52.184;5.942;2023-05-07T00:04:24;14;;;13;;
15504;SDS011;7854;52.184;5.942;2023-05-07T00:06:39;20;;;18;;
15504;SDS011;7854;52.184;5.942;2023-05-07T00:08:53;18;;;17;;
15504;SDS011;7854;52.184;5.942;2023-05-07T00:11:07;14;;;13;;
15504;SDS011;7854;52.184;5.942;2023-05-07T00:13:22;14;;;14;;
15504;SDS011;7854;52.184;5.942;2023-05-07T00:15:37;16;;;15;;
15504;SDS011;7854;52.184;5.942;2023-05-07T00:17:51;14;;;13;;
15504;SDS011;7854;52.184;5.942;2023-05-07T00:20:06;17;;;16;;
15504;SDS011;7854;52.184;5.942;2023-05-07T00:22:20;20;;;13;;
15504;SDS011;7854;52.184;5.942;2023-05-07T00:24:34;14;;;13;;
15504;SDS011;7854;52.184;5.942;2023-05-07T00:26:48;17;;;16;;
15504;SDS011;7854;52.184;5.942;2023-05-07T00:29:02;26;;;17;;
15504;SDS011;7854;52.184;5.942;2023-05-07T00:31:17;21;;;19;;
15504;SDS011;7854;52.184;5.942;2023-05-07T00:33:31;20;;;19;;
15504;SDS011;7854;52.184;5.942;2023-05-07T00:35:46;22;;;19;;
15504;SDS011;7854;52.184;5.942;2023-05-07T00:37:59;14;;;13;;
15504;SDS011;7854;52.184;5.942;2023-05-07T00:40:13;17;;;15;;
15504;SDS011;7854;52.184;5.942;2023-05-07T00:42:28;18;;;17;;
15504;SDS011;7854;52.184;5.942;2023-05-07T00:44:42;19;;;18;;
15504;SDS011;7854;52.184;5.942;2023-05-07T00:46:57;23;;;21;;
15504;SDS011;7854;52.184;5.942;2023-05-07T00:49:11;24;;;21;;
15504;SDS011;7854;52.184;5.942;2023-05-07T00:51:26;14;;;13;;
15504;SDS011;7854;52.184;5.942;2023-05-07T00:53:40;33;;;27;;
15504;SDS011;7854;52.184;5.942;2023-05-07T00:55:55;15;;;14;;
15504;SDS011;7854;52.184;5.942;2023-05-07T00:58:09;17;;;16;;
15504;SDS011;7854;52.184;5.942;2023-05-07T01:00:24;21;;;20;;
15504;SDS011;7854;52.184;5.942;2023-05-07T01:02:39;19;;;17;;
15504;SDS011;7854;52.184;5.942;2023-05-07T01:04:53;29;;;26;;
15504;SDS011;7854;52.184;5.942;2023-05-07T01:07:07;16;;;15;;
15504;SDS011;7854;52.184;5.942;2023-05-07T01:09:22;15;;;14;;
15504;SDS011;7854;52.184;5.942;2023-05-07T01:11:36;15;;;14;;
15504;SDS011;7854;52.184;5.942;2023-05-07T01:13:51;18;;;16;;
15504;SDS011;7854;52.184;5.942;2023-05-07T01:16:05;17;;;16;;
15504;SDS011;7854;52.184;5.942;2023-05-07T01:18:20;17;;;16;;
15504;SDS011;7854;52.184;5.942;2023-05-07T01:20:34;17;;;15;;
15504;SDS011;7854;52.184;5.942;2023-05-07T01:22:48;21;;;19;;
15504;SDS011;7854;52.184;5.942;2023-05-07T01:27:16;21;;;19;;
15504;SDS011;7854;52.184;5.942;2023-05-07T01:29:30;20;;;18;;
15504;SDS011;7854;52.184;5.942;2023-05-07T01:31:44;26;;;24;;
15504;SDS011;7854;52.184;5.942;2023-05-07T01:33:58;19;;;17;;
15504;SDS011;7854;52.184;5.942;2023-05-07T01:36:13;19;;;18;;
15504;SDS011;7854;52.184;5.942;2023-05-07T01:38:27;24;;;22;;
15504;SDS011;7854;52.184;5.942;2023-05-07T01:40:41;16;;;15;;
15504;SDS011;7854;52.184;5.942;2023-05-07T01:42:55;18;;;16;;
15504;SDS011;7854;52.184;5.942;2023-05-07T01:45:10;15;;;14;;
15504;SDS011;7854;52.184;5.942;2023-05-07T01:47:24;14;;;13;;
15504;SDS011;7854;52.184;5.942;2023-05-07T01:49:39;17;;;16;;
15504;SDS011;7854;52.184;5.942;2023-05-07T01:51:53;29;;;26;;
15504;SDS011;7854;52.184;5.942;2023-05-07T01:54:07;16;;;15;;
15504;SDS011;7854;52.184;5.942;2023-05-07T01:56:22;15;;;14;;
15504;SDS011;7854;52.184;5.942;2023-05-07T01:58:36;16;;;15;;
15504;SDS011;7854;52.184;5.942;2023-05-07T02:00:51;25;;;22;;
15504;SDS011;7854;52.184;5.942;2023-05-07T02:03:05;18;;;17;;
15504;SDS011;7854;52.184;5.942;2023-05-07T02:05:20;20;;;19;;
15504;SDS011;7854;52.184;5.942;2023-05-07T02:07:34;19;;;17;;
15504;SDS011;7854;52.184;5.942;2023-05-07T02:09:49;18;;;17;;
15504;SDS011;7854;52.184;5.942;2023-05-07T02:12:03;19;;;18;;
15504;SDS011;7854;52.184;5.942;2023-05-07T02:14:17;21;;;19;;
15504;SDS011;7854;52.184;5.942;2023-05-07T02:16:32;18;;;17;;
15504;SDS011;7854;52.184;5.942;2023-05-07T02:18:46;19;;;18;;
15504;SDS011;7854;52.184;5.942;2023-05-07T02:21:01;21;;;20;;
15504;SDS011;7854;52.184;5.942;2023-05-07T02:23:15;20;;;18;;
15504;SDS011;7854;52.184;5.942;2023-05-07T02:25:29;26;;;24;;
15504;SDS011;7854;52.184;5.942;2023-05-07T02:27:43;27;;;25;;
15504;SDS011;7854;52.184;5.942;2023-05-07T02:29:58;22;;;20;;
15504;SDS011;7854;52.184;5.942;2023-05-07T02:32:11;21;;;20;;
15504;SDS011;7854;52.184;5.942;2023-05-07T02:34:26;21;;;19;;
15504;SDS011;7854;52.184;5.942;2023-05-07T02:36:40;27;;;24;;
15504;SDS011;7854;52.184;5.942;2023-05-07T02:38:54;18;;;17;;
15504;SDS011;7854;52.184;5.942;2023-05-07T02:41:09;24;;;22;;
15504;SDS011;7854;52.184;5.942;2023-05-07T02:43:23;30;;;27;;
15504;SDS011;7854;52.184;5.942;2023-05-07T02:45:37;28;;;26;;
15504;SDS011;7854;52.184;5.942;2023-05-07T02:50:07;23;;;21;;
15504;SDS011;7854;52.184;5.942;2023-05-07T02:52:21;23;;;20;;
15504;SDS011;7854;52.184;5.942;2023-05-07T02:54:35;23;;;21;;
15504;SDS011;7854;52.184;5.942;2023-05-07T02:56:50;21;;;20;;
15504;SDS011;7854;52.184;5.942;2023-05-07T02:59:05;22;;;20;;
15504;SDS011;7854;52.184;5.942;2023-05-07T03:01:19;22;;;20;;
15504;SDS011;7854;52.184;5.942;2023-05-07T03:03:33;19;;;17;;
15504;SDS011;7854;52.184;5.942;2023-05-07T03:05:48;22;;;20;;
15504;SDS011;7854;52.184;5.942;2023-05-07T03:08:02;30;;;27;;
15504;SDS011;7854;52.184;5.942;2023-05-07T03:10:16;30;;;27;;
15504;SDS011;7854;52.184;5.942;2023-05-07T03:12:31;28;;;25;;
15504;SDS011;7854;52.184;5.942;2023-05-07T03:14:46;25;;;23;;
15504;SDS011;7854;52.184;5.942;2023-05-07T03:17:00;30;;;27;;
15504;SDS011;7854;52.184;5.942;2023-05-07T03:19:14;33;;;27;;
15504;SDS011;7854;52.184;5.942;2023-05-07T03:21:28;30;;;27;;
15504;SDS011;7854;52.184;5.942;2023-05-07T03:23:42;39;;;34;;
15504;SDS011;7854;52.184;5.942;2023-05-07T03:25:56;36;;;32;;
15504;SDS011;7854;52.184;5.942;2023-05-07T03:28:10;44;;;39;;
15504;SDS011;7854;52.184;5.942;2023-05-07T03:30:24;43;;;39;;
15504;SDS011;7854;52.184;5.942;2023-05-07T03:32:39;53;;;40;;
15504;SDS011;7854;52.184;5.942;2023-05-07T03:34:53;38;;;34;;
15504;SDS011;7854;52.184;5.942;2023-05-07T03:37:08;42;;;36;;
15504;SDS011;7854;52.184;5.942;2023-05-07T03:39:22;79;;;54;;
15504;SDS011;7854;52.184;5.942;2023-05-07T03:41:37;60;;;48;;
15504;SDS011;7854;52.184;5.942;2023-05-07T03:43:51;46;;;38;;
15504;SDS011;7854;52.184;5.942;2023-05-07T03:46:06;43;;;38;;
15504;SDS011;7854;52.184;5.942;2023-05-07T03:48:20;45;;;38;;
15504;SDS011;7854;52.184;5.942;2023-05-07T03:50:35;43;;;38;;
15504;SDS011;7854;52.184;5.942;2023-05-07T03:52:49;58;;;45;;
15504;SDS011;7854;52.184;5.942;2023-05-07T03:55:04;50;;;44;;
15504;SDS011;7854;52.184;5.942;2023-05-07T03:57:18;46;;;41;;
15504;SDS011;7854;52.184;5.942;2023-05-07T03:59:33;40;;;36;;
15504;SDS011;7854;52.184;5.942;2023-05-07T04:01:47;41;;;37;;
15504;SDS011;7854;52.184;5.942;2023-05-07T04:04:01;51;;;42;;
15504;SDS011;7854;52.184;5.942;2023-05-07T04:06:16;46;;;40;;
15504;SDS011;7854;52.184;5.942;2023-05-07T04:08:30;40;;;36;;
15504;SDS011;7854;52.184;5.942;2023-05-07T04:10:45;44;;;40;;
15504;SDS011;7854;52.184;5.942;2023-05-07T04:12:58;45;;;41;;
15504;SDS011;7854;52.184;5.942;2023-05-07T04:15:12;46;;;41;;
15504;SDS011;7854;52.184;5.942;2023-05-07T04:17:26;64;;;49;;
15504;SDS011;7854;52.184;5.942;2023-05-07T04:19:41;45;;;41;;
15504;SDS011;7854;52.184;5.942;2023-05-07T04:21:55;44;;;39;;
15504;SDS011;7854;52.184;5.942;2023-05-07T04:24:10;44;;;39;;
15504;SDS011;7854;52.184;5.942;2023-05-07T04:26:24;54;;;46;;
15504;SDS011;7854;52.184;5.942;2023-05-07T04:28:38;43;;;38;;
15504;SDS011;7854;52.184;5.942;2023-05-07T04:30:53;44;;;39;;
15504;SDS011;7854;52.184;5.942;2023-05-07T04:33:07;43;;;39;;
15504;SDS011;7854;52.184;5.942;2023-05-07T04:35:22;38;;;35;;
15504;SDS011;7854;52.184;5.942;2023-05-07T04:37:36;44;;;40;;
15504;SDS011;7854;52.184;5.942;2023-05-07T04:39:51;49;;;42;;
15504;SDS011;7854;52.184;5.942;2023-05-07T04:42:05;53;;;45;;
15504;SDS011;7854;52.184;5.942;2023-05-07T04:44:19;47;;;42;;
15504;SDS011;7854;52.184;5.942;2023-05-07T04:46:33;48;;;42;;
15504;SDS011;7854;52.184;5.942;2023-05-07T04:48:47;45;;;40;;
15504;SDS011;7854;52.184;5.942;2023-05-07T04:51:02;51;;;41;;
15504;SDS011;7854;52.184;5.942;2023-05-07T04:53:16;63;;;51;;
15504;SDS011;7854;52.184;5.942;2023-05-07T04:55:31;48;;;42;;
15504;SDS011;7854;52.184;5.942;2023-05-07T04:57:45;44;;;39;;
15504;SDS011;7854;52.184;5.942;2023-05-07T05:00:00;62;;;52;;
15504;SDS011;7854;52.184;5.942;2023-05-07T05:02:14;44;;;39;;
15504;SDS011;7854;52.184;5.942;2023-05-07T05:04:28;49;;;44;;
15504;SDS011;7854;52.184;5.942;2023-05-07T05:06:42;41;;;37;;
15504;SDS011;7854;52.184;5.942;2023-05-07T05:08:56;47;;;40;;
15504;SDS011;7854;52.184;5.942;2023-05-07T05:11:10;53;;;44;;
15504;SDS011;7854;52.184;5.942;2023-05-07T05:13:25;52;;;45;;
15504;SDS011;7854;52.184;5.942;2023-05-07T05:15:39;50;;;42;;
15504;SDS011;7854;52.184;5.942;2023-05-07T05:17:53;56;;;46;;
15504;SDS011;7854;52.184;5.942;2023-05-07T05:20:08;62;;;50;;
15504;SDS011;7854;52.184;5.942;2023-05-07T05:22:22;44;;;40;;
15504;SDS011;7854;52.184;5.942;2023-05-07T05:24:36;44;;;39;;
15504;SDS011;7854;52.184;5.942;2023-05-07T05:26:52;47;;;42;;
15504;SDS011;7854;52.184;5.942;2023-05-07T05:29:06;57;;;47;;
15504;SDS011;7854;52.184;5.942;2023-05-07T05:31:20;45;;;40;;
15504;SDS011;7854;52.184;5.942;2023-05-07T05:33:35;44;;;39;;
15504;SDS011;7854;52.184;5.942;2023-05-07T05:35:49;49;;;40;;
15504;SDS011;7854;52.184;5.942;2023-05-07T05:38:03;44;;;36;;
15504;SDS011;7854;52.184;5.942;2023-05-07T05:40:18;50;;;43;;
15504;SDS011;7854;52.184;5.942;2023-05-07T05:42:32;42;;;37;;
15504;SDS011;7854;52.184;5.942;2023-05-07T05:44:47;41;;;37;;
15504;SDS011;7854;52.184;5.942;2023-05-07T05:47:02;42;;;37;;
15504;SDS011;7854;52.184;5.942;2023-05-07T05:49:16;39;;;35;;
15504;SDS011;7854;52.184;5.942;2023-05-07T05:51:30;37;;;33;;
15504;SDS011;7854;52.184;5.942;2023-05-07T05:53:45;41;;;37;;
15504;SDS011;7854;52.184;5.942;2023-05-07T05:55:58;38;;;33;;
15504;SDS011;7854;52.184;5.942;2023-05-07T05:58:12;36;;;32;;
15504;SDS011;7854;52.184;5.942;2023-05-07T06:00:27;36;;;33;;
15504;SDS011;7854;52.184;5.942;2023-05-07T06:04:55;38;;;32;;
15504;SDS011;7854;52.184;5.942;2023-05-07T06:07:10;33;;;29;;
15504;SDS011;7854;52.184;5.942;2023-05-07T06:09:25;40;;;32;;
15504;SDS011;7854;52.184;5.942;2023-05-07T06:11:39;31;;;28;;
15504;SDS011;7854;52.184;5.942;2023-05-07T06:13:53;31;;;27;;
15504;SDS011;7854;52.184;5.942;2023-05-07T06:16:07;31;;;28;;
15504;SDS011;7854;52.184;5.942;2023-05-07T06:18:22;30;;;27;;
15504;SDS011;7854;52.184;5.942;2023-05-07T06:20:36;37;;;31;;
15504;SDS011;7854;52.184;5.942;2023-05-07T06:22:50;31;;;28;;
15504;SDS011;7854;52.184;5.942;2023-05-07T06:25:05;44;;;30;;
15504;SDS011;7854;52.184;5.942;2023-05-07T06:27:19;31;;;28;;
15504;SDS011;7854;52.184;5.942;2023-05-07T06:29:34;30;;;27;;
15504;SDS011;7854;52.184;5.942;2023-05-07T06:31:48;31;;;28;;
15504;SDS011;7854;52.184;5.942;2023-05-07T06:34:03;30;;;27;;
15504;SDS011;7854;52.184;5.942;2023-05-07T06:36:17;33;;;26;;
15504;SDS011;7854;52.184;5.942;2023-05-07T06:38:31;34;;;27;;
15504;SDS011;7854;52.184;5.942;2023-05-07T06:40:47;27;;;24;;
15504;SDS011;7854;52.184;5.942;2023-05-07T06:43:00;30;;;27;;
15504;SDS011;7854;52.184;5.942;2023-05-07T06:45:15;29;;;26;;
15504;SDS011;7854;52.184;5.942;2023-05-07T06:47:29;31;;;27;;
15504;SDS011;7854;52.184;5.942;2023-05-07T06:49:44;32;;;28;;
15504;SDS011;7854;52.184;5.942;2023-05-07T06:51:58;31;;;27;;
15504;SDS011;7854;52.184;5.942;2023-05-07T06:54:13;31;;;28;;
15504;SDS011;7854;52.184;5.942;2023-05-07T06:56:27;39;;;28;;
15504;SDS011;7854;52.184;5.942;2023-05-07T06:58:41;32;;;26;;
15504;SDS011;7854;52.184;5.942;2023-05-07T07:00:56;32;;;27;;
15504;SDS011;7854;52.184;5.942;2023-05-07T07:03:09;37;;;27;;
15504;SDS011;7854;52.184;5.942;2023-05-07T07:05:24;29;;;26;;
15504;SDS011;7854;52.184;5.942;2023-05-07T07:07:38;28;;;25;;
15504;SDS011;7854;52.184;5.942;2023-05-07T07:09:53;29;;;26;;
15504;SDS011;7854;52.184;5.942;2023-05-07T07:12:07;28;;;25;;
15504;SDS011;7854;52.184;5.942;2023-05-07T07:14:21;31;;;27;;
15504;SDS011;7854;52.184;5.942;2023-05-07T07:16:36;32;;;28;;
15504;SDS011;7854;52.184;5.942;2023-05-07T07:18:50;31;;;28;;
15504;SDS011;7854;52.184;5.942;2023-05-07T07:21:04;28;;;26;;
15504;SDS011;7854;52.184;5.942;2023-05-07T07:23:19;31;;;28;;
15504;SDS011;7854;52.184;5.942;2023-05-07T07:25:33;27;;;24;;
15504;SDS011;7854;52.184;5.942;2023-05-07T07:27:48;29;;;25;;
15504;SDS011;7854;52.184;5.942;2023-05-07T07:30:06;29;;;26;;
15504;SDS011;7854;52.184;5.942;2023-05-07T07:32:16;29;;;26;;
15504;SDS011;7854;52.184;5.942;2023-05-07T07:34:30;31;;;27;;
15504;SDS011;7854;52.184;5.942;2023-05-07T07:36:45;30;;;27;;
15504;SDS011;7854;52.184;5.942;2023-05-07T07:39:00;29;;;26;;
15504;SDS011;7854;52.184;5.942;2023-05-07T07:41:14;27;;;24;;
15504;SDS011;7854;52.184;5.942;2023-05-07T07:43:28;27;;;24;;
15504;SDS011;7854;52.184;5.942;2023-05-07T07:45:43;28;;;25;;
15504;SDS011;7854;52.184;5.942;2023-05-07T07:47:58;29;;;25;;
15504;SDS011;7854;52.184;5.942;2023-05-07T07:50:12;27;;;25;;
15504;SDS011;7854;52.184;5.942;2023-05-07T07:52:26;25;;;22;;
15504;SDS011;7854;52.184;5.942;2023-05-07T07:54:41;29;;;24;;
15504;SDS011;7854;52.184;5.942;2023-05-07T07:56:55;25;;;23;;
15504;SDS011;7854;52.184;5.942;2023-05-07T07:59:10;25;;;21;;
15504;SDS011;7854;52.184;5.942;2023-05-07T08:01:24;24;;;22;;
15504;SDS011;7854;52.184;5.942;2023-05-07T08:03:39;23;;;21;;
15504;SDS011;7854;52.184;5.942;2023-05-07T08:05:53;24;;;21;;
15504;SDS011;7854;52.184;5.942;2023-05-07T08:08:07;23;;;20;;
15504;SDS011;7854;52.184;5.942;2023-05-07T08:10:21;22;;;19;;
15504;SDS011;7854;52.184;5.942;2023-05-07T08:12:35;21;;;19;;
15504;SDS011;7854;52.184;5.942;2023-05-07T08:14:48;19;;;17;;
15504;SDS011;7854;52.184;5.942;2023-05-07T08:17:03;18;;;16;;
15504;SDS011;7854;52.184;5.942;2023-05-07T08:19:17;20;;;18;;
15504;SDS011;7854;52.184;5.942;2023-05-07T08:21:32;18;;;17;;
15504;SDS011;7854;52.184;5.942;2023-05-07T08:23:47;18;;;16;;
15504;SDS011;7854;52.184;5.942;2023-05-07T08:26:01;20;;;18;;
15504;SDS011;7854;52.184;5.942;2023-05-07T08:28:15;19;;;18;;
15504;SDS011;7854;52.184;5.942;2023-05-07T08:30:30;21;;;19;;
15504;SDS011;7854;52.184;5.942;2023-05-07T08:32:44;20;;;18;;
15504;SDS011;7854;52.184;5.942;2023-05-07T08:34:59;20;;;18;;
15504;SDS011;7854;52.184;5.942;2023-05-07T08:37:13;18;;;17;;
15504;SDS011;7854;52.184;5.942;2023-05-07T08:39:28;19;;;16;;
15504;SDS011;7854;52.184;5.942;2023-05-07T08:41:43;17;;;16;;
15504;SDS011;7854;52.184;5.942;2023-05-07T08:43:58;19;;;17;;
15504;SDS011;7854;52.184;5.942;2023-05-07T08:46:11;18;;;17;;
15504;SDS011;7854;52.184;5.942;2023-05-07T08:48:25;19;;;17;;
15504;SDS011;7854;52.184;5.942;2023-05-07T08:50:40;17;;;16;;
15504;SDS011;7854;52.184;5.942;2023-05-07T08:55:09;19;;;17;;
15504;SDS011;7854;52.184;5.942;2023-05-07T08:57:23;19;;;17;;
15504;SDS011;7854;52.184;5.942;2023-05-07T08:59:38;20;;;18;;
15504;SDS011;7854;52.184;5.942;2023-05-07T09:01:52;18;;;17;;
15504;SDS011;7854;52.184;5.942;2023-05-07T09:04:05;18;;;17;;
15504;SDS011;7854;52.184;5.942;2023-05-07T09:06:20;18;;;16;;
15504;SDS011;7854;52.184;5.942;2023-05-07T09:08:35;20;;;18;;
15504;SDS011;7854;52.184;5.942;2023-05-07T09:10:49;21;;;19;;
15504;SDS011;7854;52.184;5.942;2023-05-07T09:13:02;21;;;18;;
15504;SDS011;7854;52.184;5.942;2023-05-07T09:15:17;20;;;18;;
15504;SDS011;7854;52.184;5.942;2023-05-07T09:17:31;19;;;17;;
15504;SDS011;7854;52.184;5.942;2023-05-07T09:19:46;20;;;18;;
15504;SDS011;7854;52.184;5.942;2023-05-07T09:22:00;19;;;17;;
15504;SDS011;7854;52.184;5.942;2023-05-07T09:24:15;21;;;19;;
15504;SDS011;7854;52.184;5.942;2023-05-07T09:26:29;21;;;19;;
15504;SDS011;7854;52.184;5.942;2023-05-07T09:28:44;19;;;18;;
15504;SDS011;7854;52.184;5.942;2023-05-07T09:30:58;19;;;17;;
15504;SDS011;7854;52.184;5.942;2023-05-07T09:33:13;20;;;19;;
15504;SDS011;7854;52.184;5.942;2023-05-07T09:35:27;22;;;18;;
15504;SDS011;7854;52.184;5.942;2023-05-07T09:37:41;20;;;18;;
15504;SDS011;7854;52.184;5.942;2023-05-07T09:39:56;19;;;17;;
15504;SDS011;7854;52.184;5.942;2023-05-07T09:42:10;19;;;17;;
15504;SDS011;7854;52.184;5.942;2023-05-07T09:44:25;17;;;16;;
15504;SDS011;7854;52.184;5.942;2023-05-07T09:46:39;18;;;17;;
15504;SDS011;7854;52.184;5.942;2023-05-07T09:48:54;20;;;18;;
15504;SDS011;7854;52.184;5.942;2023-05-07T09:51:11;16;;;15;;
15504;SDS011;7854;52.184;5.942;2023-05-07T09:53:23;17;;;16;;
15504;SDS011;7854;52.184;5.942;2023-05-07T09:55:37;19;;;16;;
15504;SDS011;7854;52.184;5.942;2023-05-07T09:57:52;17;;;15;;
15504;SDS011;7854;52.184;5.942;2023-05-07T10:00:05;15;;;14;;
15504;SDS011;7854;52.184;5.942;2023-05-07T10:02:19;17;;;15;;
15504;SDS011;7854;52.184;5.942;2023-05-07T10:04:34;17;;;16;;
15504;SDS011;7854;52.184;5.942;2023-05-07T10:06:47;16;;;15;;
15504;SDS011;7854;52.184;5.942;2023-05-07T10:09:02;18;;;17;;
15504;SDS011;7854;52.184;5.942;2023-05-07T10:11:16;17;;;15;;
15504;SDS011;7854;52.184;5.942;2023-05-07T10:13:30;16;;;14;;
15504;SDS011;7854;52.184;5.942;2023-05-07T10:15:45;17;;;16;;
15504;SDS011;7854;52.184;5.942;2023-05-07T10:18:00;17;;;15;;
15504;SDS011;7854;52.184;5.942;2023-05-07T10:20:14;18;;;16;;
15504;SDS011;7854;52.184;5.942;2023-05-07T10:22:28;17;;;15;;
15504;SDS011;7854;52.184;5.942;2023-05-07T10:24:42;17;;;15;;
15504;SDS011;7854;52.184;5.942;2023-05-07T10:26:57;14;;;13;;
15504;SDS011;7854;52.184;5.942;2023-05-07T10:29:12;15;;;14;;
15504;SDS011;7854;52.184;5.942;2023-05-07T10:31:32;21;;;16;;
15504;SDS011;7854;52.184;5.942;2023-05-07T10:33:40;16;;;15;;
15504;SDS011;7854;52.184;5.942;2023-05-07T10:35:55;19;;;17;;
15504;SDS011;7854;52.184;5.942;2023-05-07T10:38:09;17;;;16;;
15504;SDS011;7854;52.184;5.942;2023-05-07T10:40:24;15;;;14;;
15504;SDS011;7854;52.184;5.942;2023-05-07T10:42:38;17;;;16;;
15504;SDS011;7854;52.184;5.942;2023-05-07T10:44:52;19;;;17;;
15504;SDS011;7854;52.184;5.942;2023-05-07T10:47:08;17;;;16;;
15504;SDS011;7854;52.184;5.942;2023-05-07T10:49:21;18;;;17;;
15504;SDS011;7854;52.184;5.942;2023-05-07T10:51:36;17;;;16;;
15504;SDS011;7854;52.184;5.942;2023-05-07T10:53:55;24;;;16;;
15504;SDS011;7854;52.184;5.942;2023-05-07T10:58:22;18;;;16;;
15504;SDS011;7854;52.184;5.942;2023-05-07T11:00:48;18;;;16;;
15504;SDS011;7854;52.184;5.942;2023-05-07T11:05:24;17;;;16;;
15504;SDS011;7854;52.184;5.942;2023-05-07T11:07:23;15;;;14;;
15504;SDS011;7854;52.184;5.942;2023-05-07T11:09:53;16;;;14;;
15504;SDS011;7854;52.184;5.942;2023-05-07T11:11:45;18;;;15;;
15504;SDS011;7854;52.184;5.942;2023-05-07T11:13:58;15;;;14;;
15504;SDS011;7854;52.184;5.942;2023-05-07T11:16:16;14;;;13;;
15504;SDS011;7854;52.184;5.942;2023-05-07T11:18:27;13;;;12;;
15504;SDS011;7854;52.184;5.942;2023-05-07T11:20:46;12;;;11;;
15504;SDS011;7854;52.184;5.942;2023-05-07T11:22:56;14;;;13;;
15504;SDS011;7854;52.184;5.942;2023-05-07T11:25:11;11;;;11;;
15504;SDS011;7854;52.184;5.942;2023-05-07T11:27:25;12;;;12;;
15504;SDS011;7854;52.184;5.942;2023-05-07T11:29:39;13;;;12;;
15504;SDS011;7854;52.184;5.942;2023-05-07T11:31:54;13;;;12;;
15504;SDS011;7854;52.184;5.942;2023-05-07T11:34:09;10;;;9;;
15504;SDS011;7854;52.184;5.942;2023-05-07T11:36:23;11;;;10;;
15504;SDS011;7854;52.184;5.942;2023-05-07T11:38:38;14;;;10;;
15504;SDS011;7854;52.184;5.942;2023-05-07T11:40:52;11;;;10;;
15504;SDS011;7854;52.184;5.942;2023-05-07T11:43:10;12;;;11;;
15504;SDS011;7854;52.184;5.942;2023-05-07T11:45:22;11;;;10;;
15504;SDS011;7854;52.184;5.942;2023-05-07T11:47:35;10;;;9;;
15504;SDS011;7854;52.184;5.942;2023-05-07T11:49:50;9;;;9;;
15504;SDS011;7854;52.184;5.942;2023-05-07T11:52:04;10;;;9;;
15504;SDS011;7854;52.184;5.942;2023-05-07T11:54:19;8;;;8;;
15504;SDS011;7854;52.184;5.942;2023-05-07T11:56:33;10;;;9;;
15504;SDS011;7854;52.184;5.942;2023-05-07T11:58:48;8;;;8;;
15504;SDS011;7854;52.184;5.942;2023-05-07T12:01:02;10;;;9;;
15504;SDS011;7854;52.184;5.942;2023-05-07T12:03:16;10;;;9;;
15504;SDS011;7854;52.184;5.942;2023-05-07T12:05:31;10;;;9;;
15504;SDS011;7854;52.184;5.942;2023-05-07T12:07:45;11;;;8;;
15504;SDS011;7854;52.184;5.942;2023-05-07T12:10:03;11;;;10;;
15504;SDS011;7854;52.184;5.942;2023-05-07T12:12:14;10;;;10;;
15504;SDS011;7854;52.184;5.942;2023-05-07T12:14:29;10;;;10;;
15504;SDS011;7854;52.184;5.942;2023-05-07T12:16:42;13;;;12;;
15504;SDS011;7854;52.184;5.942;2023-05-07T12:18:57;11;;;10;;
15504;SDS011;7854;52.184;5.942;2023-05-07T12:21:11;9;;;9;;
15504;SDS011;7854;52.184;5.942;2023-05-07T12:23:25;12;;;10;;
15504;SDS011;7854;52.184;5.942;2023-05-07T12:25:40;11;;;11;;
15504;SDS011;7854;52.184;5.942;2023-05-07T12:27:54;13;;;12;;
15504;SDS011;7854;52.184;5.942;2023-05-07T12:30:09;12;;;10;;
15504;SDS011;7854;52.184;5.942;2023-05-07T12:32:23;11;;;11;;
15504;SDS011;7854;52.184;5.942;2023-05-07T12:34:37;11;;;11;;
15504;SDS011;7854;52.184;5.942;2023-05-07T12:36:52;11;;;10;;
15504;SDS011;7854;52.184;5.942;2023-05-07T12:39:06;13;;;12;;
15504;SDS011;7854;52.184;5.942;2023-05-07T12:41:21;12;;;11;;
15504;SDS011;7854;52.184;5.942;2023-05-07T12:43:36;11;;;10;;
15504;SDS011;7854;52.184;5.942;2023-05-07T12:45:50;12;;;11;;
15504;SDS011;7854;52.184;5.942;2023-05-07T12:48:04;14;;;10;;
15504;SDS011;7854;52.184;5.942;2023-05-07T12:50:19;13;;;11;;
15504;SDS011;7854;52.184;5.942;2023-05-07T12:52:33;12;;;11;;
15504;SDS011;7854;52.184;5.942;2023-05-07T12:54:47;11;;;11;;
15504;SDS011;7854;52.184;5.942;2023-05-07T12:57:03;17;;;13;;
15504;SDS011;7854;52.184;5.942;2023-05-07T12:59:15;14;;;13;;
15504;SDS011;7854;52.184;5.942;2023-05-07T13:01:30;12;;;11;;
15504;SDS011;7854;52.184;5.942;2023-05-07T13:03:47;13;;;12;;
15504;SDS011;7854;52.184;5.942;2023-05-07T13:05:59;13;;;12;;
15504;SDS011;7854;52.184;5.942;2023-05-07T13:10:28;14;;;12;;
15504;SDS011;7854;52.184;5.942;2023-05-07T13:12:44;12;;;11;;
15504;SDS011;7854;52.184;5.942;2023-05-07T13:14:57;12;;;12;;
15504;SDS011;7854;52.184;5.942;2023-05-07T13:17:11;12;;;11;;
15504;SDS011;7854;52.184;5.942;2023-05-07T13:19:24;11;;;10;;
15504;SDS011;7854;52.184;5.942;2023-05-07T13:21:39;12;;;11;;
15504;SDS011;7854;52.184;5.942;2023-05-07T13:23:55;13;;;12;;
15504;SDS011;7854;52.184;5.942;2023-05-07T13:26:08;11;;;11;;
15504;SDS011;7854;52.184;5.942;2023-05-07T13:28:22;13;;;12;;
15504;SDS011;7854;52.184;5.942;2023-05-07T13:30:37;13;;;12;;
15504;SDS011;7854;52.184;5.942;2023-05-07T13:32:51;12;;;12;;
15504;SDS011;7854;52.184;5.942;2023-05-07T13:35:06;13;;;12;;
15504;SDS011;7854;52.184;5.942;2023-05-07T13:37:20;20;;;15;;
15504;SDS011;7854;52.184;5.942;2023-05-07T13:39:35;14;;;12;;
15504;SDS011;7854;52.184;5.942;2023-05-07T13:41:49;14;;;13;;
15504;SDS011;7854;52.184;5.942;2023-05-07T13:44:04;16;;;14;;
15504;SDS011;7854;52.184;5.942;2023-05-07T13:46:18;14;;;13;;
15504;SDS011;7854;52.184;5.942;2023-05-07T13:48:32;13;;;12;;
15504;SDS011;7854;52.184;5.942;2023-05-07T13:50:47;15;;;13;;
15504;SDS011;7854;52.184;5.942;2023-05-07T13:53:01;14;;;13;;
15504;SDS011;7854;52.184;5.942;2023-05-07T13:55:16;15;;;14;;
15504;SDS011;7854;52.184;5.942;2023-05-07T13:57:30;13;;;12;;
15504;SDS011;7854;52.184;5.942;2023-05-07T13:59:45;14;;;13;;
15504;SDS011;7854;52.184;5.942;2023-05-07T14:01:59;14;;;13;;
15504;SDS011;7854;52.184;5.942;2023-05-07T14:04:13;15;;;13;;
15504;SDS011;7854;52.184;5.942;2023-05-07T14:06:27;12;;;12;;
15504;SDS011;7854;52.184;5.942;2023-05-07T14:08:42;14;;;13;;
15504;SDS011;7854;52.184;5.942;2023-05-07T14:10:56;13;;;12;;
15504;SDS011;7854;52.184;5.942;2023-05-07T14:13:11;12;;;12;;
15504;SDS011;7854;52.184;5.942;2023-05-07T14:15:25;13;;;12;;
15504;SDS011;7854;52.184;5.942;2023-05-07T14:17:39;15;;;12;;
15504;SDS011;7854;52.184;5.942;2023-05-07T14:19:54;13;;;13;;
15504;SDS011;7854;52.184;5.942;2023-05-07T14:22:07;13;;;12;;
15504;SDS011;7854;52.184;5.942;2023-05-07T14:24:22;14;;;13;;
15504;SDS011;7854;52.184;5.942;2023-05-07T14:26:36;13;;;12;;
15504;SDS011;7854;52.184;5.942;2023-05-07T14:28:51;14;;;13;;
15504;SDS011;7854;52.184;5.942;2023-05-07T14:31:05;13;;;12;;
15504;SDS011;7854;52.184;5.942;2023-05-07T14:33:19;15;;;13;;
15504;SDS011;7854;52.184;5.942;2023-05-07T14:35:34;13;;;12;;
15504;SDS011;7854;52.184;5.942;2023-05-07T14:37:48;15;;;14;;
15504;SDS011;7854;52.184;5.942;2023-05-07T14:40:03;12;;;11;;
15504;SDS011;7854;52.184;5.942;2023-05-07T14:44:32;16;;;14;;
15504;SDS011;7854;52.184;5.942;2023-05-07T14:46:46;16;;;15;;
15504;SDS011;7854;52.184;5.942;2023-05-07T14:49:01;17;;;15;;
15504;SDS011;7854;52.184;5.942;2023-05-07T14:51:16;18;;;16;;
15504;SDS011;7854;52.184;5.942;2023-05-07T14:53:30;19;;;17;;
15504;SDS011;7854;52.184;5.942;2023-05-07T14:55:44;19;;;17;;